x

Neah Bay, - 6nm North Of Cape Flattery, Wa (traffic Separation Lighted Buoy) (46087) Weather Station

5:20 - Fri 30th Jan 2015 All times are PST. -8 hours from GMT.

  • Wind
    16mph, 20mph gusts
  • Sea Temp 50°f
  • Ar Temp 46°f
  • Sea Pressure 1025.8mb
  • Neah Bay, - 6nm North Of Cape Flattery, Wa     (traffic Separation Lighted Buoy)
  • Neah Bay, - 6nm North Of Cape Flattery, Wa     (traffic Separation Lighted Buoy)

More Historic Weather Station data

Upgrade to MSW Pro to gain access to the past 30 days of data for over 8000 Wavebouys and Weather Stations around the globe.

Join Pro

Comparision Forecast

View Surf forecast
   
Sex 01/30 5:20  -   -   -  16 20 mph 1025.8mb 50f 46f
4:50 6ft 11s 8s 16 18 mph 1026.2mb 50f 47f
4:20  -   -   -  16 18 mph 1026.2mb 50f 47f
3:50 6.5ft 10s 8s 16 20 mph 1026.1mb 50f 47f
3:20  -   -   -  16 20 mph 1026.2mb 50f 47f
2:50 6.5ft 11s 8s 16 20 mph 1026.4mb 50f 47f
2:20  -   -   -  16 18 mph 1026.4mb 50f 47f
1:50 6ft 9s 9s 16 20 mph 1026.5mb 50f 46f
1:20  -   -   -  16 18 mph 1026.4mb 50f 47f
12:50 6ft 11s 9s 13 18 mph 1026.5mb 50f 47f
12:20  -   -   -  16 20 mph 1026.3mb 50f 47f
Qui 01/29 11:50 6ft 11s 9s 13 16 mph 1026.7mb 50f 47f
11:20  -   -   -  13 18 mph 1026.5mb 50f 47f
10:50 5.5ft 10s 8s 16 20 mph 1026.3mb 50f 47f
10:20  -   -   -  16 18 mph 1026.4mb 50f 47f
9:50 6.5ft 9s 8s 16 18 mph 1026.3mb 50f 47f
9:20  -   -   -  16 20 mph 1026mb 50f 48f
8:50 6ft 10s 8s 18 20 mph 1025.9mb 49f 48f
8:20  -   -   -  16 20 mph 1025.9mb 49f 48f
7:50 6ft 11s 8s 16 20 mph 1026.2mb 49f 48f
7:20  -   -   -  13 18 mph 1026.4mb 49f 48f
6:50 5.5ft 11s 8s 16 18 mph 1026.2mb 49f 48f
6:20  -   -   -  16 20 mph 1026mb 49f 48f
5:50 5.5ft 11s 8s 16 20 mph 1026mb 49f 48f
5:20  -   -   -  18 22 mph 1025.9mb 49f 48f
4:50 5.5ft 11s 7s 20 25 mph 1025.8mb 49f 48f
4:20  -   -   -  18 20 mph 1026.2mb 49f 48f
3:50 5ft 11s 7s 18 22 mph 1026.2mb 49f 48f
3:20  -   -   -  18 22 mph 1026.4mb 50f 48f
2:50 5ft 16s 7s 18 22 mph 1026.4mb 50f 48f
2:20  -   -   -  18 22 mph 1026.4mb 50f 48f
1:50 5ft 11s  -  20 25 mph 1026.5mb 50f 48f
1:20  -   -   -  20 22 mph 1026.7mb 50f 47f
12:50 5ft 11s 6s 20 25 mph 1027.1mb 50f 47f
12:20  -   -   -  20 25 mph 1027.3mb 50f 47f
11:50 4.5ft 11s 6s 22 25 mph 1027.4mb 50f 47f
11:20  -   -   -  20 25 mph 1027.8mb 50f 48f
10:20  -   -   -  18 22 mph 1028mb 50f 48f
9:50 4.5ft 10s 6s 18 20 mph 1028.3mb 50f 48f
9:20  -   -   -  16 18 mph 1028.3mb 50f 48f
8:50 5ft 11s 6s 18 22 mph 1027.7mb 50f 48f
8:20  -   -   -  20 25 mph 1027.3mb 50f 47f
7:50 4.5ft 11s 6s 20 25 mph 1027.3mb 50f 47f
7:20  -   -   -  25 29 mph 1026.7mb 50f 47f
6:50 4.5ft 11s 6s 22 25 mph 1026.7mb 50f 48f
6:20  -   -   -  20 25 mph 1026.9mb 50f 48f
5:50 3.5ft 13s 6s 20 25 mph 1026.9mb 50f 47f
5:20  -   -   -  18 22 mph 1027.4mb 50f 48f
4:50 3.5ft 12s 5s 18 22 mph 1027.4mb 50f 47f
4:20  -   -   -  18 20 mph 1027.5mb 50f 47f
3:50 3.5ft 11s 5s 18 22 mph 1027.7mb 50f 47f
3:20  -   -   -  16 20 mph 1028.1mb 50f 47f
2:50 3.5ft 11s 6s 16 20 mph 1028.1mb 50f 47f
2:20  -   -   -  16 18 mph 1028.3mb 50f 47f
1:50 3ft 11s 6s 18 20 mph 1028.2mb 50f 47f
1:20  -   -   -  16 18 mph 1028.3mb 50f 47f
12:50 3.5ft 11s 6s 16 20 mph 1028.2mb 50f 47f
12:20  -   -   -  18 20 mph 1028mb 50f 47f
Qua 01/28 11:50 3.5ft 11s 7s 18 20 mph 1028.2mb 50f 47f
11:20  -   -   -  18 22 mph 1028.1mb 50f 47f
10:50 3.5ft 12s 6s 18 20 mph 1028mb 50f 48f
10:20  -   -   -  18 20 mph 1028.1mb 50f 48f
9:50 3.5ft 11s 7s 18 20 mph 1028.1mb 50f 48f
9:20  -   -   -  16 18 mph 1028.1mb 50f 48f
8:50 3.5ft 11s 6s 16 18 mph 1028.1mb 50f 48f
8:20  -   -   -  18 20 mph 1027.9mb 50f 48f
7:50 4ft 11s 6s 18 20 mph 1027.7mb 50f 48f
7:20  -   -   -  18 22 mph 1027.6mb 50f 48f
6:50 4.5ft 12s 6s 18 20 mph 1027.6mb 50f 49f
6:20  -   -   -  20 22 mph 1027.4mb 50f 49f
5:50 4.5ft 11s 6s 18 22 mph 1027.4mb 50f 49f
5:20  -   -   -  18 22 mph 1027.4mb 50f 49f
4:50 4.5ft 13s 5s 20 25 mph 1027.2mb 50f 49f
4:20  -   -   -  22 25 mph 1027.2mb 50f 49f
3:50 4.5ft 10s 6s 22 27 mph 1027.1mb 50f 49f
3:20  -   -   -  22 27 mph 1027.1mb 50f 48f
2:50 4.5ft 12s 6s 22 25 mph 1027.1mb 50f 48f
2:20  -   -   -  20 25 mph 1027.6mb 50f 48f
1:50 4.5ft 11s 7s 20 22 mph 1028mb 50f 47f
1:20  -   -   -  18 22 mph 1028.1mb 50f 47f
12:50 4.5ft 11s 7s 16 20 mph 1028.4mb 50f 48f
12:20  -   -   -  16 18 mph 1028.7mb 50f 47f
11:50 5ft 11s 7s 13 16 mph 1028.9mb 50f 47f
11:20  -   -   -  13 18 mph 1029mb 50f 46f
10:50 5ft 12s 7s 13 18 mph 1028.9mb 50f 46f
10:20  -   -   -  13 18 mph 1028.9mb 50f 46f
9:50 4.5ft 12s 8s 13 16 mph 1028.6mb 49f 46f
9:20  -   -   -  11 16 mph 1028.4mb 49f 45f
8:50 5.5ft 12s 8s 11 16 mph 1028.2mb 49f 45f
8:20  -   -   -  13 16 mph 1028mb 49f 45f
7:50 4.5ft 11s 8s 13 16 mph 1027.8mb 49f 45f
7:20  -   -   -  11 13 mph 1027.6mb 49f 45f
6:50 5ft 12s 8s 9 13 mph 1027.6mb 49f 44f
6:20  -   -   -  9 11 mph 1027.4mb 49f 45f
5:50 5ft 11s 7s 9 11 mph 1027.1mb 49f 45f
5:20  -   -   -  11 13 mph 1026.8mb 49f 45f
4:50 5.5ft 13s 8s 11 16 mph 1026.6mb 49f 46f
4:20  -   -   -  11 13 mph 1026.5mb 49f 47f
3:50 5ft 13s 8s 7 11 mph 1026.7mb 49f 47f
3:20  -   -   -  4 7 mph 1026.7mb 49f 48f
2:50 5.5ft 13s 8s 2 4 mph 1026.8mb 49f 48f
2:20  -   -   -  2 4 mph 1026.6mb 49f 48f
1:50 5.5ft 14s 8s 2 4 mph 1026.2mb 49f 48f
1:20  -   -   -  2 4 mph 1025.9mb 49f 48f
12:50 6ft 10s 8s 4 9 mph 1025.7mb 49f 48f
12:20  -   -   -  7 9 mph 1025.7mb 49f 48f
Ter 01/27 11:50 6.5ft 11s 8s 7 11 mph 1025.6mb 49f 48f
11:20  -   -   -  9 11 mph 1025.4mb 50f 48f
10:50 6.5ft 8s 7s 11 13 mph 1025.1mb 50f 48f
10:20  -   -   -  11 16 mph 1024.6mb 50f 48f
9:50 7ft 8s 7s 7 13 mph 1024.4mb 50f 48f
9:20  -   -   -  9 16 mph 1024mb 50f 48f
8:50 7ft 10s 7s 9 13 mph 1023.7mb 50f 48f
8:20  -   -   -  9 18 mph 1023.3mb 50f 48f
7:50 7ft 11s 7s 11 16 mph 1022.8mb 50f 49f
7:20  -   -   -  11 16 mph 1022.4mb 50f 49f
6:50 7.5ft 11s 7s 13 16 mph 1022.1mb 50f 49f
6:20  -   -   -  13 18 mph 1021.8mb 50f 49f
5:50 8ft 9s 7s 13 18 mph 1021.6mb 50f 49f
5:20  -   -   -  13 20 mph 1021.4mb 50f 49f
4:50 7.5ft 9s 8s 13 16 mph 1021.2mb 50f 49f
4:20  -   -   -  13 16 mph 1020.9mb 50f 49f
3:50 6.5ft 12s 7s 13 18 mph 1020.7mb 50f 49f
3:20  -   -   -  13 18 mph 1020.5mb 50f 49f
2:50 6.5ft 12s 8s 16 20 mph 1020.3mb 51f 49f
2:20  -   -   -  13 18 mph 1020.1mb 51f 49f
1:50 6ft 11s 8s 16 18 mph 1019.9mb 51f 49f
1:20  -   -   -  13 18 mph 1019.7mb 51f 49f
12:50 5.5ft 14s 8s 16 20 mph 1019.5mb 51f 50f
12:20  -   -   -  11 16 mph 1019.5mb 51f 50f
11:50 5.5ft 12s 8s 11 16 mph 1019.3mb 51f 50f
11:20  -   -   -  16 18 mph 1019.1mb 51f 50f
10:50 6ft 11s 8s 13 18 mph 1018.8mb 51f 50f
10:20  -   -   -  16 20 mph 1018.3mb 50f 49f
9:50 6.5ft 14s 8s 18 20 mph 1017.7mb 50f 49f
9:20  -   -   -  18 20 mph 1017.4mb 50f 49f
8:50 6ft 14s 8s 18 20 mph 1016.9mb 50f 49f
8:20  -   -   -  16 20 mph 1016.5mb 50f 48f
7:50 6ft 10s 8s 16 18 mph 1016.2mb 50f 48f
7:20  -   -   -  9 13 mph 1016mb 50f 48f
6:50 6.5ft 10s 8s 9 11 mph 1015.8mb 50f 49f
6:20  -   -   -  9 11 mph 1015.5mb 50f 49f
5:50 6ft 11s 8s 2 4 mph 1015.3mb 50f 49f
5:20  -   -   -  2 4 mph 1015.1mb 50f 49f
4:50 6ft 11s 8s 7 9 mph 1015mb 50f 49f
4:20  -   -   -  7 9 mph 1014.9mb 50f 49f
3:50 6.5ft 14s 8s 9 11 mph 1014.9mb 50f 50f
3:20  -   -   -  13 16 mph 1014.8mb 50f 50f
2:50 6ft 11s 8s 11 16 mph 1014.8mb 50f 50f
2:20  -   -   -  13 16 mph 1014.7mb 50f 49f
1:50 5.5ft 12s 8s 13 18 mph 1014.7mb 50f 50f
1:20  -   -   -  16 18 mph 1014.7mb 50f 50f
12:50 7ft 13s 8s 13 16 mph 1014.9mb 50f 50f
12:20  -   -   -  16 18 mph 1014.9mb 50f 50f
Seg 01/26 11:50 7ft 13s 8s 13 18 mph 1014.8mb 50f 50f
11:20  -   -   -  11 16 mph 1014.6mb 50f 51f
10:50 6.5ft 13s 8s 13 18 mph 1014.3mb 50f 51f
10:20  -   -   -  11 16 mph 1014mb 50f 51f
9:50 7ft 14s 8s 11 16 mph 1014mb 50f 51f
9:20  -   -   -  11 16 mph 1014.1mb 50f 51f
8:50 7.5ft 13s 8s 13 18 mph 1013.8mb 50f 51f
8:20  -   -   -  16 18 mph 1013.6mb 50f 50f
7:50 7ft 10s 8s 16 20 mph 1013.4mb 50f 51f
7:20  -   -   -  9 11 mph 1013.5mb 50f 51f
6:50 7ft 11s 8s 2 4 mph 1013.2mb 50f 50f
6:20  -   -   -  4 9 mph 1013.1mb 50f 50f
5:50 8ft 11s 8s 7
mph
1013.3mb 50f 50f
5:20  -   -   -  9
mph
1013.4mb 50f 50f
4:50 8ft 15s 8s 9 11 mph 1013.3mb 50f 50f
4:20  -   -   -  13 16 mph 1013.4mb 50f 51f
3:50 8ft 12s 8s 18 22 mph 1013.3mb 50f 51f
3:20  -   -   -  11 18 mph 1013.4mb 50f 51f
2:50 7.5ft 11s 9s 4 11 mph 1013.3mb 50f 50f
2:20  -   -   -  7
mph
1013.1mb 50f 47f